Schwertner, TX (76573)

11:16 PM CST on February 28, 2015 (GMT -0600)
KTXGRANG4 | Change Station
CLOSE
Current Station
Personal Weather Station
Location: Granger, TX
Elevation: 594 ft
Nearby Weather Stations

Elev 594 ft 30.74 °N, 97.43 °W | Updated 13 minutes ago

Overcast
Overcast
33.5 °F
Feels Like 26 °F
N
9.0
Wind Variable Wind from NNE
Gusts 12.0 mph

Today
High -- | Low -- °F
--% Chance of Precip.
Yesterday
High -- | Low -- °F
Precip. -- in
6:57 AM 6:27 PM
Waxing Gibbous, 82% visible
Pressure 30.28 in
Visibility 5.0 miles
Clouds Overcast 400 ft
Windchill 26 °F
Dew Point 33 °F
Humidity 97%
Rainfall 0.02 in
Snow Depth Not available.
UV 0 out of 12
Pollen 8.30 out of 12
Air Quality Not available.
Flu Activity Not available.
METAR KGTU 010455Z 01006KT 5SM OVC004 01/00 A3028 RMK AO1

More Conditions Fewer Conditions

Pressure 30.28 in
Visibility 5.0 miles
Clouds Overcast 400 ft
Windchill 26 °F
Dew Point 33 °F
Humidity 97%
Rainfall 0.02 in
Snow Depth Not available.
UV 0 out of 12
Pollen 8.30 out of 12
Air Quality Not available.
Flu Activity Not available.
METAR KGTU 010455Z 01006KT 5SM OVC004 01/00 A3028 RMK AO1

More Conditions Fewer Conditions

10-Day Weather Forecast

Almanac

Astronomy

Feb. 28, 2015 Rise Set
Actual Time
Civil Twilight
Nautical Twilight
Astronomical Twilight
Moon
Length of Visible Light
Length of Day
Tomorrow will be .
, % of the Moon is Illuminated

Today's Extremes

State Highs State Lows

Community

WunderPhotos

Upload Photos

1,801,319 photos uploaded!

WunderBlogs® & News

Nearby

Air Quality

  Air Quality AQ Index Pollutant
Not available.

Snow Depth

Station Depth Elevation

Earthquake Activity

City Distance Mag. Time & Date
Minimum magnitude displayed is 2.5.

Coastal Water Temperatures

Place Temperature

Nearby Weather Stations